sensor_id;sensor_type;location;lat;lon;timestamp;temperature;humidity
4910;DHT22;2470;49.868;8.660;2023-05-07T00:02:20;18.30;99.90
4910;DHT22;2470;49.868;8.660;2023-05-07T00:04:46;18.30;99.90
4910;DHT22;2470;49.868;8.660;2023-05-07T00:07:12;18.30;99.90
4910;DHT22;2470;49.868;8.660;2023-05-07T00:09:37;18.30;99.90
4910;DHT22;2470;49.868;8.660;2023-05-07T00:12:03;18.30;99.90
4910;DHT22;2470;49.868;8.660;2023-05-07T00:14:29;18.20;99.90
4910;DHT22;2470;49.868;8.660;2023-05-07T00:16:55;18.30;99.90
4910;DHT22;2470;49.868;8.660;2023-05-07T00:19:20;18.20;99.90
4910;DHT22;2470;49.868;8.660;2023-05-07T00:21:46;18.20;99.90
4910;DHT22;2470;49.868;8.660;2023-05-07T00:24:12;18.30;99.90
4910;DHT22;2470;49.868;8.660;2023-05-07T00:26:37;18.30;99.90
4910;DHT22;2470;49.868;8.660;2023-05-07T00:29:03;18.30;99.90
4910;DHT22;2470;49.868;8.660;2023-05-07T00:31:28;18.30;99.90
4910;DHT22;2470;49.868;8.660;2023-05-07T00:33:54;18.30;99.90
4910;DHT22;2470;49.868;8.660;2023-05-07T00:36:19;18.30;99.90
4910;DHT22;2470;49.868;8.660;2023-05-07T00:38:45;18.30;99.90
4910;DHT22;2470;49.868;8.660;2023-05-07T00:41:10;18.30;99.90
4910;DHT22;2470;49.868;8.660;2023-05-07T00:43:36;18.30;99.90
4910;DHT22;2470;49.868;8.660;2023-05-07T00:46:01;18.30;99.90
4910;DHT22;2470;49.868;8.660;2023-05-07T00:48:27;18.30;99.90
4910;DHT22;2470;49.868;8.660;2023-05-07T00:50:53;18.30;99.90
4910;DHT22;2470;49.868;8.660;2023-05-07T00:53:19;18.30;99.90
4910;DHT22;2470;49.868;8.660;2023-05-07T00:55:45;18.20;99.90
4910;DHT22;2470;49.868;8.660;2023-05-07T00:58:10;18.20;99.90
4910;DHT22;2470;49.868;8.660;2023-05-07T01:00:36;18.20;99.90
4910;DHT22;2470;49.868;8.660;2023-05-07T01:03:01;18.10;99.90
4910;DHT22;2470;49.868;8.660;2023-05-07T01:05:27;18.10;99.90
4910;DHT22;2470;49.868;8.660;2023-05-07T01:07:55;18.00;99.90
4910;DHT22;2470;49.868;8.660;2023-05-07T01:10:21;18.00;99.90
4910;DHT22;2470;49.868;8.660;2023-05-07T01:12:48;18.00;99.90
4910;DHT22;2470;49.868;8.660;2023-05-07T01:15:15;17.90;99.90
4910;DHT22;2470;49.868;8.660;2023-05-07T01:17:41;17.90;99.90
4910;DHT22;2470;49.868;8.660;2023-05-07T01:20:08;17.90;99.90
4910;DHT22;2470;49.868;8.660;2023-05-07T01:22:37;17.80;99.90
4910;DHT22;2470;49.868;8.660;2023-05-07T01:25:03;17.80;99.90
4910;DHT22;2470;49.868;8.660;2023-05-07T01:27:29;17.80;99.90
4910;DHT22;2470;49.868;8.660;2023-05-07T01:29:55;17.80;99.90
4910;DHT22;2470;49.868;8.660;2023-05-07T01:32:29;17.80;99.90
4910;DHT22;2470;49.868;8.660;2023-05-07T01:34:57;17.80;99.90
4910;DHT22;2470;49.868;8.660;2023-05-07T01:37:24;17.70;99.90
4910;DHT22;2470;49.868;8.660;2023-05-07T01:39:51;17.70;99.90
4910;DHT22;2470;49.868;8.660;2023-05-07T01:42:17;17.70;99.90
4910;DHT22;2470;49.868;8.660;2023-05-07T01:44:43;17.70;99.90
4910;DHT22;2470;49.868;8.660;2023-05-07T01:47:09;17.70;99.90
4910;DHT22;2470;49.868;8.660;2023-05-07T01:49:35;17.70;99.90
4910;DHT22;2470;49.868;8.660;2023-05-07T01:52:01;17.70;99.90
4910;DHT22;2470;49.868;8.660;2023-05-07T01:54:27;17.70;99.90
4910;DHT22;2470;49.868;8.660;2023-05-07T01:56:59;17.70;99.90
4910;DHT22;2470;49.868;8.660;2023-05-07T01:59:25;17.70;99.90
4910;DHT22;2470;49.868;8.660;2023-05-07T02:01:50;17.70;99.90
4910;DHT22;2470;49.868;8.660;2023-05-07T02:04:17;17.70;99.90
4910;DHT22;2470;49.868;8.660;2023-05-07T02:06:42;17.80;99.90
4910;DHT22;2470;49.868;8.660;2023-05-07T02:09:08;17.80;99.90
4910;DHT22;2470;49.868;8.660;2023-05-07T02:11:34;17.70;99.90
4910;DHT22;2470;49.868;8.660;2023-05-07T02:13:59;17.70;99.90
4910;DHT22;2470;49.868;8.660;2023-05-07T02:16:25;17.70;99.90
4910;DHT22;2470;49.868;8.660;2023-05-07T02:18:50;17.70;99.90
4910;DHT22;2470;49.868;8.660;2023-05-07T02:21:16;17.70;99.90
4910;DHT22;2470;49.868;8.660;2023-05-07T02:23:42;17.70;99.90
4910;DHT22;2470;49.868;8.660;2023-05-07T02:26:07;17.60;99.90
4910;DHT22;2470;49.868;8.660;2023-05-07T02:28:33;17.60;99.90
4910;DHT22;2470;49.868;8.660;2023-05-07T02:31:02;17.60;99.90
4910;DHT22;2470;49.868;8.660;2023-05-07T02:33:28;17.50;99.90
4910;DHT22;2470;49.868;8.660;2023-05-07T02:35:53;17.50;99.90
4910;DHT22;2470;49.868;8.660;2023-05-07T02:38:19;17.50;99.90
4910;DHT22;2470;49.868;8.660;2023-05-07T02:40:44;17.50;99.90
4910;DHT22;2470;49.868;8.660;2023-05-07T02:43:10;17.50;99.90
4910;DHT22;2470;49.868;8.660;2023-05-07T02:45:36;17.50;99.90
4910;DHT22;2470;49.868;8.660;2023-05-07T02:48:03;17.50;99.90
4910;DHT22;2470;49.868;8.660;2023-05-07T02:50:29;17.50;99.90
4910;DHT22;2470;49.868;8.660;2023-05-07T02:52:54;17.50;99.90
4910;DHT22;2470;49.868;8.660;2023-05-07T02:55:20;17.50;99.90
4910;DHT22;2470;49.868;8.660;2023-05-07T02:57:45;17.50;99.90
4910;DHT22;2470;49.868;8.660;2023-05-07T03:00:18;17.50;99.90
4910;DHT22;2470;49.868;8.660;2023-05-07T03:02:47;17.50;99.90
4910;DHT22;2470;49.868;8.660;2023-05-07T03:05:12;17.50;99.90
4910;DHT22;2470;49.868;8.660;2023-05-07T03:07:39;17.50;99.90
4910;DHT22;2470;49.868;8.660;2023-05-07T03:10:05;17.50;99.90
4910;DHT22;2470;49.868;8.660;2023-05-07T03:12:31;17.40;99.90
4910;DHT22;2470;49.868;8.660;2023-05-07T03:14:57;17.50;99.90
4910;DHT22;2470;49.868;8.660;2023-05-07T03:17:22;17.50;99.90
4910;DHT22;2470;49.868;8.660;2023-05-07T03:19:48;17.50;99.90
4910;DHT22;2470;49.868;8.660;2023-05-07T03:22:14;17.40;99.90
4910;DHT22;2470;49.868;8.660;2023-05-07T03:24:39;17.40;99.90
4910;DHT22;2470;49.868;8.660;2023-05-07T03:27:05;17.40;99.90
4910;DHT22;2470;49.868;8.660;2023-05-07T03:29:30;17.40;99.90
4910;DHT22;2470;49.868;8.660;2023-05-07T03:31:56;17.40;99.90
4910;DHT22;2470;49.868;8.660;2023-05-07T03:34:21;17.40;99.90
4910;DHT22;2470;49.868;8.660;2023-05-07T03:36:50;17.40;99.90
4910;DHT22;2470;49.868;8.660;2023-05-07T03:39:16;17.40;99.90
4910;DHT22;2470;49.868;8.660;2023-05-07T03:41:41;17.50;99.90
4910;DHT22;2470;49.868;8.660;2023-05-07T03:44:07;17.50;99.90
4910;DHT22;2470;49.868;8.660;2023-05-07T03:46:33;17.40;99.90
4910;DHT22;2470;49.868;8.660;2023-05-07T03:48:59;17.40;99.90
4910;DHT22;2470;49.868;8.660;2023-05-07T03:51:24;17.40;99.90
4910;DHT22;2470;49.868;8.660;2023-05-07T03:53:51;17.40;99.90
4910;DHT22;2470;49.868;8.660;2023-05-07T03:56:18;17.40;99.90
4910;DHT22;2470;49.868;8.660;2023-05-07T03:58:44;17.40;99.90
4910;DHT22;2470;49.868;8.660;2023-05-07T04:01:10;17.40;99.90
4910;DHT22;2470;49.868;8.660;2023-05-07T04:03:35;17.40;99.90
4910;DHT22;2470;49.868;8.660;2023-05-07T04:06:01;17.40;99.90
4910;DHT22;2470;49.868;8.660;2023-05-07T04:08:26;17.50;99.90
4910;DHT22;2470;49.868;8.660;2023-05-07T04:10:58;17.50;99.90
4910;DHT22;2470;49.868;8.660;2023-05-07T04:13:24;17.50;99.90
4910;DHT22;2470;49.868;8.660;2023-05-07T04:15:51;17.40;99.90
4910;DHT22;2470;49.868;8.660;2023-05-07T04:18:17;17.40;99.90
4910;DHT22;2470;49.868;8.660;2023-05-07T04:20:42;17.50;99.90
4910;DHT22;2470;49.868;8.660;2023-05-07T04:23:08;17.50;99.90
4910;DHT22;2470;49.868;8.660;2023-05-07T04:25:34;17.50;99.90
4910;DHT22;2470;49.868;8.660;2023-05-07T04:27:59;17.40;99.90
4910;DHT22;2470;49.868;8.660;2023-05-07T04:30:25;17.50;99.90
4910;DHT22;2470;49.868;8.660;2023-05-07T04:32:51;17.50;99.90
4910;DHT22;2470;49.868;8.660;2023-05-07T04:35:17;17.40;99.90
4910;DHT22;2470;49.868;8.660;2023-05-07T04:37:43;17.40;99.90
4910;DHT22;2470;49.868;8.660;2023-05-07T04:40:08;17.40;99.90
4910;DHT22;2470;49.868;8.660;2023-05-07T04:42:34;17.30;99.90
4910;DHT22;2470;49.868;8.660;2023-05-07T04:44:59;17.40;99.90
4910;DHT22;2470;49.868;8.660;2023-05-07T04:47:25;17.40;99.90
4910;DHT22;2470;49.868;8.660;2023-05-07T04:49:51;17.30;99.90
4910;DHT22;2470;49.868;8.660;2023-05-07T04:52:16;17.40;99.90
4910;DHT22;2470;49.868;8.660;2023-05-07T04:54:42;17.40;99.90
4910;DHT22;2470;49.868;8.660;2023-05-07T04:57:07;17.40;99.90
4910;DHT22;2470;49.868;8.660;2023-05-07T04:59:33;17.40;99.90
4910;DHT22;2470;49.868;8.660;2023-05-07T05:01:59;17.40;99.90
4910;DHT22;2470;49.868;8.660;2023-05-07T05:04:24;17.30;99.90
4910;DHT22;2470;49.868;8.660;2023-05-07T05:06:50;17.40;99.90
4910;DHT22;2470;49.868;8.660;2023-05-07T05:09:15;17.40;99.90
4910;DHT22;2470;49.868;8.660;2023-05-07T05:11:41;17.40;99.90
4910;DHT22;2470;49.868;8.660;2023-05-07T05:14:06;17.40;99.90
4910;DHT22;2470;49.868;8.660;2023-05-07T05:16:32;17.40;99.90
4910;DHT22;2470;49.868;8.660;2023-05-07T05:18:58;17.40;99.90
4910;DHT22;2470;49.868;8.660;2023-05-07T05:21:23;17.50;99.90
4910;DHT22;2470;49.868;8.660;2023-05-07T05:23:49;17.50;99.90
4910;DHT22;2470;49.868;8.660;2023-05-07T05:26:15;17.50;99.90
4910;DHT22;2470;49.868;8.660;2023-05-07T05:28:40;17.50;99.90
4910;DHT22;2470;49.868;8.660;2023-05-07T05:31:06;17.60;99.90
4910;DHT22;2470;49.868;8.660;2023-05-07T05:33:31;17.60;99.90
4910;DHT22;2470;49.868;8.660;2023-05-07T05:35:57;17.70;99.90
4910;DHT22;2470;49.868;8.660;2023-05-07T05:38:22;17.70;99.90
4910;DHT22;2470;49.868;8.660;2023-05-07T05:40:48;17.70;99.90
4910;DHT22;2470;49.868;8.660;2023-05-07T05:43:14;17.70;99.90
4910;DHT22;2470;49.868;8.660;2023-05-07T05:45:39;17.80;99.90
4910;DHT22;2470;49.868;8.660;2023-05-07T05:48:05;17.80;99.90
4910;DHT22;2470;49.868;8.660;2023-05-07T05:50:31;17.80;99.90
4910;DHT22;2470;49.868;8.660;2023-05-07T05:52:56;17.80;99.90
4910;DHT22;2470;49.868;8.660;2023-05-07T05:55:23;17.90;99.90
4910;DHT22;2470;49.868;8.660;2023-05-07T05:57:49;18.00;99.90
4910;DHT22;2470;49.868;8.660;2023-05-07T06:00:15;18.10;99.90
4910;DHT22;2470;49.868;8.660;2023-05-07T06:02:41;18.20;99.90
4910;DHT22;2470;49.868;8.660;2023-05-07T06:05:08;18.20;99.90
4910;DHT22;2470;49.868;8.660;2023-05-07T06:07:33;18.20;99.90
4910;DHT22;2470;49.868;8.660;2023-05-07T06:10:00;18.20;99.90
4910;DHT22;2470;49.868;8.660;2023-05-07T06:12:25;18.30;99.90
4910;DHT22;2470;49.868;8.660;2023-05-07T06:14:51;18.30;99.90
4910;DHT22;2470;49.868;8.660;2023-05-07T06:17:16;18.30;99.90
4910;DHT22;2470;49.868;8.660;2023-05-07T06:19:42;18.30;99.90
4910;DHT22;2470;49.868;8.660;2023-05-07T06:22:07;18.30;99.90
4910;DHT22;2470;49.868;8.660;2023-05-07T06:24:33;18.30;99.90
4910;DHT22;2470;49.868;8.660;2023-05-07T06:26:58;18.30;99.90
4910;DHT22;2470;49.868;8.660;2023-05-07T06:29:24;18.30;99.90
4910;DHT22;2470;49.868;8.660;2023-05-07T06:31:54;18.30;99.90
4910;DHT22;2470;49.868;8.660;2023-05-07T06:34:20;18.30;99.90
4910;DHT22;2470;49.868;8.660;2023-05-07T06:36:45;18.40;99.90
4910;DHT22;2470;49.868;8.660;2023-05-07T06:39:11;18.40;99.90
4910;DHT22;2470;49.868;8.660;2023-05-07T06:41:36;18.40;99.90
4910;DHT22;2470;49.868;8.660;2023-05-07T06:44:02;18.30;99.90
4910;DHT22;2470;49.868;8.660;2023-05-07T06:46:28;18.30;99.90
4910;DHT22;2470;49.868;8.660;2023-05-07T06:48:54;18.40;99.90
4910;DHT22;2470;49.868;8.660;2023-05-07T06:51:20;18.50;99.90
4910;DHT22;2470;49.868;8.660;2023-05-07T06:53:45;18.50;99.90
4910;DHT22;2470;49.868;8.660;2023-05-07T06:56:11;18.50;99.90
4910;DHT22;2470;49.868;8.660;2023-05-07T06:58:37;18.50;99.90
4910;DHT22;2470;49.868;8.660;2023-05-07T07:01:02;18.40;99.90
4910;DHT22;2470;49.868;8.660;2023-05-07T07:03:28;18.50;99.90
4910;DHT22;2470;49.868;8.660;2023-05-07T07:05:54;18.50;99.90
4910;DHT22;2470;49.868;8.660;2023-05-07T07:08:21;18.50;99.90
4910;DHT22;2470;49.868;8.660;2023-05-07T07:10:47;18.50;99.90
4910;DHT22;2470;49.868;8.660;2023-05-07T07:13:12;18.50;99.90
4910;DHT22;2470;49.868;8.660;2023-05-07T07:15:38;18.50;99.90
4910;DHT22;2470;49.868;8.660;2023-05-07T07:18:04;18.60;99.90
4910;DHT22;2470;49.868;8.660;2023-05-07T07:20:30;18.60;99.90
4910;DHT22;2470;49.868;8.660;2023-05-07T07:22:55;18.60;99.90
4910;DHT22;2470;49.868;8.660;2023-05-07T07:25:21;18.60;99.90
4910;DHT22;2470;49.868;8.660;2023-05-07T07:27:46;18.60;99.90
4910;DHT22;2470;49.868;8.660;2023-05-07T07:30:12;18.60;99.90
4910;DHT22;2470;49.868;8.660;2023-05-07T07:32:37;18.70;99.90
4910;DHT22;2470;49.868;8.660;2023-05-07T07:35:03;18.70;99.90
4910;DHT22;2470;49.868;8.660;2023-05-07T07:37:29;18.80;99.90
4910;DHT22;2470;49.868;8.660;2023-05-07T07:39:55;18.80;99.90
4910;DHT22;2470;49.868;8.660;2023-05-07T07:42:21;18.80;99.90
4910;DHT22;2470;49.868;8.660;2023-05-07T07:44:46;19.00;99.90
4910;DHT22;2470;49.868;8.660;2023-05-07T07:47:12;19.10;99.90
4910;DHT22;2470;49.868;8.660;2023-05-07T07:49:37;19.00;99.90
4910;DHT22;2470;49.868;8.660;2023-05-07T07:52:03;19.00;99.90
4910;DHT22;2470;49.868;8.660;2023-05-07T07:54:29;19.00;99.90
4910;DHT22;2470;49.868;8.660;2023-05-07T07:56:54;19.00;99.90
4910;DHT22;2470;49.868;8.660;2023-05-07T07:59:20;19.00;99.90
4910;DHT22;2470;49.868;8.660;2023-05-07T08:01:45;19.10;99.90
4910;DHT22;2470;49.868;8.660;2023-05-07T08:04:13;19.10;99.90
4910;DHT22;2470;49.868;8.660;2023-05-07T08:06:39;19.20;99.90
4910;DHT22;2470;49.868;8.660;2023-05-07T08:09:04;19.30;99.90
4910;DHT22;2470;49.868;8.660;2023-05-07T08:11:30;19.40;99.90
4910;DHT22;2470;49.868;8.660;2023-05-07T08:13:56;19.50;99.90
4910;DHT22;2470;49.868;8.660;2023-05-07T08:16:21;19.50;99.90
4910;DHT22;2470;49.868;8.660;2023-05-07T08:18:47;19.60;99.90
4910;DHT22;2470;49.868;8.660;2023-05-07T08:21:12;19.60;99.90
4910;DHT22;2470;49.868;8.660;2023-05-07T08:23:38;19.70;99.90
4910;DHT22;2470;49.868;8.660;2023-05-07T08:26:04;19.80;99.90
4910;DHT22;2470;49.868;8.660;2023-05-07T08:28:29;19.80;99.90
4910;DHT22;2470;49.868;8.660;2023-05-07T08:30:55;19.80;99.90
4910;DHT22;2470;49.868;8.660;2023-05-07T08:33:22;19.90;99.90
4910;DHT22;2470;49.868;8.660;2023-05-07T08:35:48;20.00;99.90
4910;DHT22;2470;49.868;8.660;2023-05-07T08:38:13;20.10;99.90
4910;DHT22;2470;49.868;8.660;2023-05-07T08:40:39;20.10;99.90
4910;DHT22;2470;49.868;8.660;2023-05-07T08:43:06;20.20;99.90
4910;DHT22;2470;49.868;8.660;2023-05-07T08:45:33;20.20;99.90
4910;DHT22;2470;49.868;8.660;2023-05-07T08:48:02;20.30;99.90
4910;DHT22;2470;49.868;8.660;2023-05-07T08:50:28;20.30;99.90
4910;DHT22;2470;49.868;8.660;2023-05-07T08:52:54;20.30;99.90
4910;DHT22;2470;49.868;8.660;2023-05-07T08:55:22;20.30;99.90
4910;DHT22;2470;49.868;8.660;2023-05-07T08:57:47;20.40;99.90
4910;DHT22;2470;49.868;8.660;2023-05-07T09:00:14;20.40;99.90
4910;DHT22;2470;49.868;8.660;2023-05-07T09:02:40;20.50;99.90
4910;DHT22;2470;49.868;8.660;2023-05-07T09:05:05;20.50;99.90
4910;DHT22;2470;49.868;8.660;2023-05-07T09:07:31;20.60;99.90
4910;DHT22;2470;49.868;8.660;2023-05-07T09:09:57;20.70;99.90
4910;DHT22;2470;49.868;8.660;2023-05-07T09:12:23;20.70;99.90
4910;DHT22;2470;49.868;8.660;2023-05-07T09:14:49;20.80;99.90
4910;DHT22;2470;49.868;8.660;2023-05-07T09:17:16;20.80;99.90
4910;DHT22;2470;49.868;8.660;2023-05-07T09:19:42;20.90;99.90
4910;DHT22;2470;49.868;8.660;2023-05-07T09:22:08;20.90;99.90
4910;DHT22;2470;49.868;8.660;2023-05-07T09:24:34;20.90;99.90
4910;DHT22;2470;49.868;8.660;2023-05-07T09:27:02;21.00;99.90
4910;DHT22;2470;49.868;8.660;2023-05-07T09:29:28;21.00;99.90
4910;DHT22;2470;49.868;8.660;2023-05-07T09:32:07;21.10;99.90
4910;DHT22;2470;49.868;8.660;2023-05-07T09:34:33;21.20;99.80
4910;DHT22;2470;49.868;8.660;2023-05-07T09:37:01;21.30;99.60
4910;DHT22;2470;49.868;8.660;2023-05-07T09:39:26;21.40;99.50
4910;DHT22;2470;49.868;8.660;2023-05-07T09:42:03;21.50;99.60
4910;DHT22;2470;49.868;8.660;2023-05-07T09:44:29;21.60;99.30
4910;DHT22;2470;49.868;8.660;2023-05-07T09:46:57;21.70;99.20
4910;DHT22;2470;49.868;8.660;2023-05-07T09:49:28;21.80;99.00
4910;DHT22;2470;49.868;8.660;2023-05-07T09:51:55;21.80;98.70
4910;DHT22;2470;49.868;8.660;2023-05-07T09:54:22;21.90;98.80
4910;DHT22;2470;49.868;8.660;2023-05-07T09:56:52;22.00;98.60
4910;DHT22;2470;49.868;8.660;2023-05-07T09:59:18;22.10;98.50
4910;DHT22;2470;49.868;8.660;2023-05-07T10:01:45;22.20;98.40
4910;DHT22;2470;49.868;8.660;2023-05-07T10:04:11;22.30;98.50
4910;DHT22;2470;49.868;8.660;2023-05-07T10:06:37;22.30;98.40
4910;DHT22;2470;49.868;8.660;2023-05-07T10:09:03;22.40;98.20
4910;DHT22;2470;49.868;8.660;2023-05-07T10:11:34;22.40;97.90
4910;DHT22;2470;49.868;8.660;2023-05-07T10:14:02;22.40;97.70
4910;DHT22;2470;49.868;8.660;2023-05-07T10:16:44;22.40;97.70
4910;DHT22;2470;49.868;8.660;2023-05-07T10:19:10;22.50;97.50
4910;DHT22;2470;49.868;8.660;2023-05-07T10:21:36;22.60;97.10
4910;DHT22;2470;49.868;8.660;2023-05-07T10:24:09;22.70;97.10
4910;DHT22;2470;49.868;8.660;2023-05-07T10:26:44;22.70;97.10
4910;DHT22;2470;49.868;8.660;2023-05-07T10:29:50;22.70;96.60
4910;DHT22;2470;49.868;8.660;2023-05-07T10:32:30;22.80;96.50
4910;DHT22;2470;49.868;8.660;2023-05-07T10:35:01;22.80;96.30
4910;DHT22;2470;49.868;8.660;2023-05-07T10:37:28;22.80;96.40
4910;DHT22;2470;49.868;8.660;2023-05-07T10:39:53;22.90;96.50
4910;DHT22;2470;49.868;8.660;2023-05-07T10:42:19;23.00;96.40
4910;DHT22;2470;49.868;8.660;2023-05-07T10:44:45;23.10;96.40
4910;DHT22;2470;49.868;8.660;2023-05-07T10:47:12;23.20;96.30
4910;DHT22;2470;49.868;8.660;2023-05-07T10:52:20;23.20;95.60
4910;DHT22;2470;49.868;8.660;2023-05-07T10:54:46;23.10;95.60
4910;DHT22;2470;49.868;8.660;2023-05-07T10:59:56;23.00;95.70
4910;DHT22;2470;49.868;8.660;2023-05-07T11:02:22;23.00;95.70
4910;DHT22;2470;49.868;8.660;2023-05-07T11:05:21;23.10;95.40
4910;DHT22;2470;49.868;8.660;2023-05-07T11:07:54;23.20;95.20
4910;DHT22;2470;49.868;8.660;2023-05-07T11:10:20;23.20;95.10
4910;DHT22;2470;49.868;8.660;2023-05-07T11:12:50;23.30;94.90
4910;DHT22;2470;49.868;8.660;2023-05-07T11:15:40;23.40;94.90
4910;DHT22;2470;49.868;8.660;2023-05-07T11:18:07;23.60;94.60
4910;DHT22;2470;49.868;8.660;2023-05-07T11:20:50;23.60;94.10
4910;DHT22;2470;49.868;8.660;2023-05-07T11:26:03;23.90;93.50
4910;DHT22;2470;49.868;8.660;2023-05-07T11:28:30;24.00;93.60
4910;DHT22;2470;49.868;8.660;2023-05-07T11:30:57;24.20;93.60
4910;DHT22;2470;49.868;8.660;2023-05-07T11:33:23;24.30;93.00
4910;DHT22;2470;49.868;8.660;2023-05-07T11:35:56;24.30;92.60
4910;DHT22;2470;49.868;8.660;2023-05-07T11:38:21;24.40;92.20
4910;DHT22;2470;49.868;8.660;2023-05-07T11:40:55;24.50;92.70
4910;DHT22;2470;49.868;8.660;2023-05-07T11:43:21;24.70;91.30
4910;DHT22;2470;49.868;8.660;2023-05-07T11:45:47;24.80;90.90
4910;DHT22;2470;49.868;8.660;2023-05-07T11:48:14;25.00;90.80
4910;DHT22;2470;49.868;8.660;2023-05-07T11:51:00;25.20;91.10
4910;DHT22;2470;49.868;8.660;2023-05-07T11:53:27;25.30;90.20
4910;DHT22;2470;49.868;8.660;2023-05-07T11:55:56;25.30;89.50
4910;DHT22;2470;49.868;8.660;2023-05-07T11:58:23;25.30;89.80
4910;DHT22;2470;49.868;8.660;2023-05-07T12:00:50;25.40;88.60
4910;DHT22;2470;49.868;8.660;2023-05-07T12:03:16;25.50;89.20
4910;DHT22;2470;49.868;8.660;2023-05-07T12:05:43;25.60;87.70
4910;DHT22;2470;49.868;8.660;2023-05-07T12:08:17;25.70;86.70
4910;DHT22;2470;49.868;8.660;2023-05-07T12:10:43;25.80;86.20
4910;DHT22;2470;49.868;8.660;2023-05-07T12:13:23;25.90;85.60
4910;DHT22;2470;49.868;8.660;2023-05-07T12:15:52;25.90;85.50
4910;DHT22;2470;49.868;8.660;2023-05-07T12:18:18;26.00;84.60
4910;DHT22;2470;49.868;8.660;2023-05-07T12:20:45;26.20;83.60
4910;DHT22;2470;49.868;8.660;2023-05-07T12:23:12;26.30;83.80
4910;DHT22;2470;49.868;8.660;2023-05-07T12:25:38;26.40;82.30
4910;DHT22;2470;49.868;8.660;2023-05-07T12:28:05;26.40;82.50
4910;DHT22;2470;49.868;8.660;2023-05-07T12:30:32;26.60;81.90
4910;DHT22;2470;49.868;8.660;2023-05-07T12:32:58;26.80;81.30
4910;DHT22;2470;49.868;8.660;2023-05-07T12:35:28;27.00;80.70
4910;DHT22;2470;49.868;8.660;2023-05-07T12:37:59;27.50;79.40
4910;DHT22;2470;49.868;8.660;2023-05-07T12:40:43;28.50;77.50
4910;DHT22;2470;49.868;8.660;2023-05-07T12:43:16;29.90;73.30
4910;DHT22;2470;49.868;8.660;2023-05-07T12:45:43;30.50;68.70
4910;DHT22;2470;49.868;8.660;2023-05-07T12:48:12;30.50;67.50
4910;DHT22;2470;49.868;8.660;2023-05-07T12:50:37;31.60;65.70
4910;DHT22;2470;49.868;8.660;2023-05-07T12:53:07;33.20;61.40
4910;DHT22;2470;49.868;8.660;2023-05-07T12:55:44;34.80;57.10
4910;DHT22;2470;49.868;8.660;2023-05-07T12:58:27;36.10;52.70
4910;DHT22;2470;49.868;8.660;2023-05-07T13:00:54;37.00;50.80
4910;DHT22;2470;49.868;8.660;2023-05-07T13:03:27;37.60;48.60
4910;DHT22;2470;49.868;8.660;2023-05-07T13:05:55;37.70;46.60
4910;DHT22;2470;49.868;8.660;2023-05-07T13:08:38;37.20;45.70
4910;DHT22;2470;49.868;8.660;2023-05-07T13:11:10;36.40;46.10
4910;DHT22;2470;49.868;8.660;2023-05-07T13:13:37;35.60;44.90
4910;DHT22;2470;49.868;8.660;2023-05-07T13:16:04;34.20;45.40
4910;DHT22;2470;49.868;8.660;2023-05-07T13:18:31;33.10;47.30
4910;DHT22;2470;49.868;8.660;2023-05-07T13:20:58;32.30;48.40
4910;DHT22;2470;49.868;8.660;2023-05-07T13:23:23;32.70;49.70
4910;DHT22;2470;49.868;8.660;2023-05-07T13:25:50;33.50;48.80
4910;DHT22;2470;49.868;8.660;2023-05-07T13:28:16;33.80;48.30
4910;DHT22;2470;49.868;8.660;2023-05-07T13:30:41;33.30;48.60
4910;DHT22;2470;49.868;8.660;2023-05-07T13:33:07;32.50;49.00
4910;DHT22;2470;49.868;8.660;2023-05-07T13:35:33;31.90;49.90
4910;DHT22;2470;49.868;8.660;2023-05-07T13:37:58;31.90;50.60
4910;DHT22;2470;49.868;8.660;2023-05-07T13:40:24;32.50;50.20
4910;DHT22;2470;49.868;8.660;2023-05-07T13:42:50;33.30;49.00
4910;DHT22;2470;49.868;8.660;2023-05-07T13:45:17;34.00;47.80
4910;DHT22;2470;49.868;8.660;2023-05-07T13:47:43;34.80;46.80
4910;DHT22;2470;49.868;8.660;2023-05-07T13:50:10;35.60;45.20
4910;DHT22;2470;49.868;8.660;2023-05-07T13:52:37;35.90;44.50
4910;DHT22;2470;49.868;8.660;2023-05-07T13:55:03;35.80;44.50
4910;DHT22;2470;49.868;8.660;2023-05-07T13:57:29;35.50;44.40
4910;DHT22;2470;49.868;8.660;2023-05-07T13:59:54;35.20;44.00
4910;DHT22;2470;49.868;8.660;2023-05-07T14:02:20;35.10;44.30
4910;DHT22;2470;49.868;8.660;2023-05-07T14:04:46;35.20;43.60
4910;DHT22;2470;49.868;8.660;2023-05-07T14:07:11;35.30;43.40
4910;DHT22;2470;49.868;8.660;2023-05-07T14:09:37;35.10;43.00
4910;DHT22;2470;49.868;8.660;2023-05-07T14:12:02;34.70;43.70
4910;DHT22;2470;49.868;8.660;2023-05-07T14:14:28;34.20;44.30
4910;DHT22;2470;49.868;8.660;2023-05-07T14:16:54;34.20;44.60
4910;DHT22;2470;49.868;8.660;2023-05-07T14:19:19;33.90;45.00
4910;DHT22;2470;49.868;8.660;2023-05-07T14:21:45;33.10;45.40
4910;DHT22;2470;49.868;8.660;2023-05-07T14:24:10;32.40;45.70
4910;DHT22;2470;49.868;8.660;2023-05-07T14:26:36;32.00;46.00
4910;DHT22;2470;49.868;8.660;2023-05-07T14:29:02;31.60;45.80
4910;DHT22;2470;49.868;8.660;2023-05-07T14:31:28;31.00;46.40
4910;DHT22;2470;49.868;8.660;2023-05-07T14:33:54;30.60;47.90
4910;DHT22;2470;49.868;8.660;2023-05-07T14:36:20;30.40;48.60
4910;DHT22;2470;49.868;8.660;2023-05-07T14:38:48;29.90;49.10
4910;DHT22;2470;49.868;8.660;2023-05-07T14:41:13;29.30;50.40
4910;DHT22;2470;49.868;8.660;2023-05-07T14:43:40;28.70;51.40
4910;DHT22;2470;49.868;8.660;2023-05-07T14:46:05;28.20;52.60
4910;DHT22;2470;49.868;8.660;2023-05-07T14:48:31;27.70;53.50
4910;DHT22;2470;49.868;8.660;2023-05-07T14:50:56;27.40;54.60
4910;DHT22;2470;49.868;8.660;2023-05-07T14:53:22;27.00;55.10
4910;DHT22;2470;49.868;8.660;2023-05-07T14:55:48;26.70;55.60
4910;DHT22;2470;49.868;8.660;2023-05-07T14:58:14;26.40;56.00
4910;DHT22;2470;49.868;8.660;2023-05-07T15:00:39;26.20;56.60
4910;DHT22;2470;49.868;8.660;2023-05-07T15:03:08;26.00;57.10
4910;DHT22;2470;49.868;8.660;2023-05-07T15:05:34;25.70;57.40
4910;DHT22;2470;49.868;8.660;2023-05-07T15:08:00;25.60;57.70
4910;DHT22;2470;49.868;8.660;2023-05-07T15:10:25;25.40;57.90
4910;DHT22;2470;49.868;8.660;2023-05-07T15:12:51;25.30;58.30
4910;DHT22;2470;49.868;8.660;2023-05-07T15:15:17;25.20;58.60
4910;DHT22;2470;49.868;8.660;2023-05-07T15:17:42;25.10;59.10
4910;DHT22;2470;49.868;8.660;2023-05-07T15:20:08;25.00;59.50
4910;DHT22;2470;49.868;8.660;2023-05-07T15:22:35;24.80;60.10
4910;DHT22;2470;49.868;8.660;2023-05-07T15:25:01;24.70;60.80
4910;DHT22;2470;49.868;8.660;2023-05-07T15:27:27;24.60;60.70
4910;DHT22;2470;49.868;8.660;2023-05-07T15:29:52;24.50;60.80
4910;DHT22;2470;49.868;8.660;2023-05-07T15:32:18;24.50;61.00
4910;DHT22;2470;49.868;8.660;2023-05-07T15:34:43;24.40;60.90
4910;DHT22;2470;49.868;8.660;2023-05-07T15:37:09;24.30;61.20
4910;DHT22;2470;49.868;8.660;2023-05-07T15:39:35;24.20;61.50
4910;DHT22;2470;49.868;8.660;2023-05-07T15:42:00;24.20;62.00
4910;DHT22;2470;49.868;8.660;2023-05-07T15:44:26;24.10;62.20
4910;DHT22;2470;49.868;8.660;2023-05-07T15:46:54;24.00;62.20
4910;DHT22;2470;49.868;8.660;2023-05-07T15:49:19;24.00;62.70
4910;DHT22;2470;49.868;8.660;2023-05-07T15:51:45;24.00;63.00
4910;DHT22;2470;49.868;8.660;2023-05-07T15:54:10;23.90;63.10
4910;DHT22;2470;49.868;8.660;2023-05-07T15:56:36;23.90;63.30
4910;DHT22;2470;49.868;8.660;2023-05-07T15:59:02;23.80;64.20
4910;DHT22;2470;49.868;8.660;2023-05-07T16:01:28;23.70;66.20
4910;DHT22;2470;49.868;8.660;2023-05-07T16:03:54;23.60;71.20
4910;DHT22;2470;49.868;8.660;2023-05-07T16:06:20;23.30;74.40
4910;DHT22;2470;49.868;8.660;2023-05-07T16:08:46;23.10;77.90